createdAt,value
2018-07-07T00:01:38.661Z,13.10
2018-07-07T00:04:07.715Z,13.00
2018-07-07T00:06:36.816Z,13.00
2018-07-07T00:09:06.166Z,12.90
2018-07-07T00:11:36.122Z,12.90
2018-07-07T00:14:05.201Z,12.90
2018-07-07T00:16:34.240Z,12.90
2018-07-07T00:19:03.280Z,12.80
2018-07-07T00:21:32.304Z,12.80
2018-07-07T00:24:01.354Z,12.70
2018-07-07T00:26:30.397Z,12.70
2018-07-07T00:28:59.440Z,12.60
2018-07-07T00:31:28.495Z,12.50
2018-07-07T00:33:57.580Z,12.50
2018-07-07T00:36:27.219Z,12.50
2018-07-07T00:38:56.281Z,12.40
2018-07-07T00:41:25.375Z,12.40
2018-07-07T00:43:54.510Z,12.50
2018-07-07T00:46:23.595Z,12.50
2018-07-07T00:48:52.752Z,12.40
2018-07-07T00:51:21.821Z,12.40
2018-07-07T00:53:50.859Z,12.30
2018-07-07T00:56:19.942Z,12.30
2018-07-07T00:58:49.100Z,12.30
2018-07-07T01:03:46.841Z,12.30
2018-07-07T01:06:24.268Z,12.30
2018-07-07T01:08:53.415Z,12.30
2018-07-07T01:11:22.461Z,12.20
2018-07-07T01:13:51.625Z,12.30
2018-07-07T01:16:20.710Z,12.20
2018-07-07T01:18:49.769Z,12.20
2018-07-07T01:21:18.807Z,12.20
2018-07-07T01:23:47.892Z,12.20
2018-07-07T01:26:16.938Z,12.10
2018-07-07T01:28:46.155Z,12.10
2018-07-07T01:31:15.146Z,12.00
2018-07-07T01:33:44.180Z,12.00
2018-07-07T01:36:13.180Z,12.00
2018-07-07T01:38:42.418Z,12.00
2018-07-07T01:41:11.444Z,11.90
2018-07-07T01:43:40.524Z,11.90
2018-07-07T01:46:09.553Z,11.90
2018-07-07T01:48:38.649Z,11.80
2018-07-07T01:51:07.671Z,11.80
2018-07-07T01:53:36.726Z,11.90
2018-07-07T01:56:06.079Z,11.80
2018-07-07T01:58:35.142Z,11.80
2018-07-07T02:01:04.233Z,11.80
2018-07-07T02:03:33.274Z,11.80
2018-07-07T02:06:02.317Z,11.80
2018-07-07T02:08:31.365Z,11.80
2018-07-07T02:11:00.402Z,11.80
2018-07-07T02:13:29.430Z,11.80
2018-07-07T02:15:58.550Z,11.70
2018-07-07T02:18:27.570Z,11.80
2018-07-07T02:20:56.596Z,11.70
2018-07-07T02:23:25.633Z,11.70
2018-07-07T02:25:54.678Z,11.70
2018-07-07T02:28:23.683Z,11.70
2018-07-07T02:30:52.769Z,11.80
2018-07-07T02:33:21.795Z,11.80
2018-07-07T02:35:50.829Z,11.70
2018-07-07T02:38:19.991Z,11.70
2018-07-07T02:40:49.004Z,11.70
2018-07-07T02:43:18.078Z,11.70
2018-07-07T02:45:47.070Z,11.70
2018-07-07T02:48:16.118Z,11.70
2018-07-07T02:50:45.162Z,11.60
2018-07-07T02:53:15.211Z,11.60
2018-07-07T02:55:44.348Z,11.60
2018-07-07T02:58:13.417Z,11.60
2018-07-07T03:03:12.072Z,11.60
2018-07-07T03:05:41.144Z,11.50
2018-07-07T03:08:10.175Z,11.50
2018-07-07T03:10:39.249Z,11.50
2018-07-07T03:13:08.265Z,11.40
2018-07-07T03:15:37.482Z,11.50
2018-07-07T03:18:06.565Z,11.50
2018-07-07T03:20:35.619Z,11.50
2018-07-07T03:23:04.657Z,11.50
2018-07-07T03:25:33.681Z,11.50
2018-07-07T03:28:02.737Z,11.60
2018-07-07T03:30:31.784Z,11.60
2018-07-07T03:33:00.834Z,11.60
2018-07-07T03:35:29.895Z,11.70
2018-07-07T03:37:58.980Z,11.70
2018-07-07T03:40:28.050Z,11.80
2018-07-07T03:42:57.071Z,12.00
2018-07-07T03:45:26.142Z,12.00
2018-07-07T03:47:55.275Z,12.00
2018-07-07T03:50:24.309Z,12.10
2018-07-07T03:55:22.125Z,12.20
2018-07-07T03:57:51.182Z,12.30
2018-07-07T04:00:20.309Z,12.30
2018-07-07T04:02:49.404Z,12.40
2018-07-07T04:05:18.466Z,12.40
2018-07-07T04:07:47.557Z,12.40
2018-07-07T04:10:16.637Z,12.40
2018-07-07T04:12:45.676Z,12.50
2018-07-07T04:15:14.724Z,12.50
2018-07-07T04:17:43.787Z,12.50
2018-07-07T04:20:12.891Z,12.60
2018-07-07T04:22:42.162Z,12.70
2018-07-07T04:25:11.224Z,12.80
2018-07-07T04:27:40.261Z,12.80
2018-07-07T04:30:09.288Z,12.90
2018-07-07T04:32:38.348Z,13.00
2018-07-07T04:35:07.445Z,13.00
2018-07-07T04:37:36.539Z,13.10
2018-07-07T04:40:05.787Z,13.20
2018-07-07T04:42:35.015Z,13.20
2018-07-07T04:45:04.142Z,13.20
2018-07-07T04:47:33.296Z,13.20
2018-07-07T04:50:02.337Z,13.30
2018-07-07T04:52:31.467Z,13.40
2018-07-07T04:55:00.499Z,13.50
2018-07-07T04:57:29.514Z,13.60
2018-07-07T04:59:58.565Z,13.60
2018-07-07T05:02:27.683Z,13.70
2018-07-07T05:04:56.941Z,13.70
2018-07-07T05:07:26.006Z,13.90
2018-07-07T05:09:55.089Z,14.00
2018-07-07T05:12:24.185Z,14.10
2018-07-07T05:14:53.226Z,14.30
2018-07-07T05:17:22.436Z,14.40
2018-07-07T05:19:51.576Z,14.50
2018-07-07T05:22:20.752Z,14.70
2018-07-07T05:24:49.831Z,14.80
2018-07-07T05:27:18.854Z,14.70
2018-07-07T05:32:16.549Z,14.70
2018-07-07T05:37:14.303Z,15.30
2018-07-07T05:39:43.336Z,15.50
2018-07-07T05:42:12.367Z,15.60
2018-07-07T05:44:41.424Z,15.60
2018-07-07T05:47:10.504Z,15.70
2018-07-07T05:49:39.554Z,15.90
2018-07-07T05:52:08.602Z,16.30
2018-07-07T05:57:06.453Z,16.40
2018-07-07T05:59:35.468Z,16.70
2018-07-07T06:02:04.652Z,17.00
2018-07-07T06:04:33.879Z,17.20
2018-07-07T06:07:03.694Z,17.40
2018-07-07T06:09:32.838Z,17.60
2018-07-07T06:12:01.931Z,17.70
2018-07-07T06:14:31.004Z,17.70
2018-07-07T06:17:00.065Z,18.00
2018-07-07T06:19:29.174Z,18.10
2018-07-07T06:21:58.261Z,18.40
2018-07-07T06:24:27.273Z,18.60
2018-07-07T06:26:56.317Z,18.50
2018-07-07T06:29:25.371Z,18.80
2018-07-07T06:31:54.432Z,19.00
2018-07-07T06:34:23.494Z,18.70
2018-07-07T06:36:52.698Z,18.80
2018-07-07T06:39:21.723Z,19.00
2018-07-07T06:41:50.832Z,19.10
2018-07-07T06:44:20.087Z,19.60
2018-07-07T06:49:17.707Z,19.90
2018-07-07T06:51:46.759Z,20.00
2018-07-07T06:54:16.295Z,20.40
2018-07-07T06:59:14.026Z,21.00
2018-07-07T07:01:43.110Z,21.10
2018-07-07T07:04:12.406Z,21.00
2018-07-07T07:06:41.517Z,21.10
2018-07-07T07:09:11.288Z,21.30
2018-07-07T07:11:40.372Z,21.90
2018-07-07T07:14:09.479Z,22.00
2018-07-07T07:16:38.609Z,21.90
2018-07-07T07:19:09.791Z,21.70
2018-07-07T07:21:39.421Z,21.80
2018-07-07T07:24:08.468Z,21.80
2018-07-07T07:26:37.559Z,22.30
2018-07-07T07:29:06.597Z,22.70
2018-07-07T07:31:35.653Z,22.50
2018-07-07T07:34:04.714Z,22.80
2018-07-07T07:36:37.914Z,23.00
2018-07-07T07:39:07.109Z,22.80
2018-07-07T07:41:36.204Z,23.30
2018-07-07T07:44:05.339Z,23.60
2018-07-07T07:46:34.410Z,23.40
2018-07-07T07:49:03.491Z,23.40
2018-07-07T07:51:32.561Z,23.80
2018-07-07T07:54:01.606Z,23.40
2018-07-07T07:56:30.632Z,23.60
2018-07-07T07:58:59.825Z,23.20
2018-07-07T08:01:28.884Z,22.80
2018-07-07T08:03:58.184Z,23.40
2018-07-07T08:06:27.227Z,24.00
2018-07-07T08:08:56.267Z,23.90
2018-07-07T08:11:25.558Z,24.10
2018-07-07T08:13:54.672Z,24.30
2018-07-07T08:16:23.722Z,24.10
2018-07-07T08:18:52.849Z,24.10
2018-07-07T08:21:21.910Z,24.50
2018-07-07T08:23:50.906Z,24.80
2018-07-07T08:26:19.942Z,25.00
2018-07-07T08:28:48.974Z,25.10
2018-07-07T08:31:17.988Z,24.80
2018-07-07T08:33:47.017Z,25.30
2018-07-07T08:36:16.177Z,25.30
2018-07-07T08:38:45.308Z,26.00
2018-07-07T08:41:15.099Z,25.40
2018-07-07T08:43:44.246Z,24.80
2018-07-07T08:46:13.352Z,25.80
2018-07-07T08:48:42.374Z,26.30
2018-07-07T08:51:11.445Z,26.30
2018-07-07T08:53:40.656Z,26.00
2018-07-07T08:56:09.737Z,26.00
2018-07-07T08:58:38.817Z,26.40
2018-07-07T09:03:36.571Z,25.50
2018-07-07T09:06:05.989Z,25.80
2018-07-07T09:08:35.673Z,26.40
2018-07-07T09:11:04.748Z,27.00
2018-07-07T09:13:33.842Z,27.10
2018-07-07T09:16:02.960Z,26.90
2018-07-07T09:18:32.122Z,26.70
2018-07-07T09:21:01.203Z,26.70
2018-07-07T09:23:30.368Z,26.80
2018-07-07T09:25:59.446Z,27.30
2018-07-07T09:28:28.580Z,27.30
2018-07-07T09:30:58.083Z,28.00
2018-07-07T09:33:27.131Z,28.00
2018-07-07T09:35:56.247Z,28.10
2018-07-07T09:38:25.266Z,28.00
2018-07-07T09:40:54.317Z,27.60
2018-07-07T09:43:23.361Z,27.40
2018-07-07T09:45:52.438Z,27.30
2018-07-07T09:48:21.769Z,27.70
2018-07-07T09:50:50.833Z,27.60
2018-07-07T09:53:19.940Z,27.80
2018-07-07T09:55:48.963Z,28.30
2018-07-07T09:58:18.014Z,28.10
2018-07-07T10:03:15.916Z,28.30
2018-07-07T10:05:45.018Z,27.90
2018-07-07T10:08:14.050Z,27.40
2018-07-07T10:10:43.086Z,27.30
2018-07-07T10:13:12.780Z,27.90
2018-07-07T10:15:41.849Z,28.40
2018-07-07T10:18:11.062Z,27.50
2018-07-07T10:20:40.249Z,26.90
2018-07-07T10:23:09.449Z,27.20
2018-07-07T10:25:38.595Z,27.30
2018-07-07T10:30:36.551Z,27.20
2018-07-07T10:33:05.854Z,27.50
2018-07-07T10:35:34.893Z,27.90
2018-07-07T10:38:03.998Z,28.00
2018-07-07T10:40:33.131Z,27.60
2018-07-07T10:43:02.172Z,27.20
2018-07-07T10:45:31.233Z,27.80
2018-07-07T10:48:00.331Z,27.80
2018-07-07T10:50:29.377Z,27.80
2018-07-07T10:52:58.412Z,27.60
2018-07-07T10:55:27.475Z,27.80
2018-07-07T10:57:56.576Z,28.40
2018-07-07T11:00:25.662Z,28.90
2018-07-07T11:02:54.788Z,29.40
2018-07-07T11:05:24.138Z,29.00
2018-07-07T11:07:53.291Z,29.00
2018-07-07T11:12:51.682Z,29.00
2018-07-07T11:15:20.805Z,28.10
2018-07-07T11:17:50.161Z,28.00
2018-07-07T11:20:19.183Z,28.60
2018-07-07T11:22:48.330Z,28.80
2018-07-07T11:25:17.459Z,29.00
2018-07-07T11:27:46.554Z,28.50
2018-07-07T11:30:15.662Z,28.70
2018-07-07T11:32:44.746Z,28.50
2018-07-07T11:35:13.913Z,28.90
2018-07-07T11:37:43.138Z,29.10
2018-07-07T11:40:12.359Z,28.80
2018-07-07T11:42:42.125Z,29.00
2018-07-07T11:45:11.194Z,29.60
2018-07-07T11:47:41.460Z,29.20
2018-07-07T11:50:10.626Z,29.10
2018-07-07T11:52:39.919Z,29.30
2018-07-07T11:55:09.000Z,28.70
2018-07-07T11:57:38.163Z,28.70
2018-07-07T12:00:07.324Z,28.90
2018-07-07T12:02:36.486Z,28.80
2018-07-07T12:05:05.636Z,29.30
2018-07-07T12:07:34.733Z,28.40
2018-07-07T12:10:03.875Z,27.40
2018-07-07T12:12:33.563Z,27.40
2018-07-07T12:15:02.608Z,27.20
2018-07-07T12:17:31.699Z,27.10
2018-07-07T12:20:00.849Z,27.20
2018-07-07T12:22:30.565Z,26.90
2018-07-07T12:24:59.709Z,26.80
2018-07-07T12:27:29.457Z,27.10
2018-07-07T12:29:58.678Z,27.00
2018-07-07T12:32:27.773Z,26.90
2018-07-07T12:34:56.864Z,26.90
2018-07-07T12:37:25.970Z,26.80
2018-07-07T12:39:55.065Z,26.80
2018-07-07T12:42:24.271Z,27.00
2018-07-07T12:44:53.379Z,27.10
2018-07-07T12:47:22.471Z,27.20
2018-07-07T12:49:52.127Z,27.20
2018-07-07T12:52:21.203Z,27.10
2018-07-07T12:54:50.614Z,26.90
2018-07-07T12:57:19.728Z,26.70
2018-07-07T12:59:48.915Z,26.70
2018-07-07T13:02:18.509Z,26.00
2018-07-07T13:04:48.046Z,26.20
2018-07-07T13:07:17.536Z,26.40
2018-07-07T13:09:46.726Z,26.10
2018-07-07T13:12:15.830Z,27.00
2018-07-07T13:14:45.008Z,27.30
2018-07-07T13:17:14.120Z,27.00
2018-07-07T13:19:43.167Z,26.80
2018-07-07T13:22:13.174Z,27.10
2018-07-07T13:24:42.464Z,27.50
2018-07-07T13:27:12.596Z,27.90
2018-07-07T13:29:41.699Z,28.00
2018-07-07T13:32:11.819Z,27.30
2018-07-07T13:34:40.992Z,27.50
2018-07-07T13:37:10.310Z,27.10
2018-07-07T13:39:40.980Z,27.20
2018-07-07T13:42:12.019Z,27.50
2018-07-07T13:44:41.874Z,27.30
2018-07-07T13:47:10.926Z,27.20
2018-07-07T13:49:40.140Z,27.10
2018-07-07T13:52:09.508Z,27.50
2018-07-07T13:54:39.477Z,27.80
2018-07-07T13:57:08.806Z,27.80
2018-07-07T14:02:07.103Z,26.90
2018-07-07T14:04:36.210Z,27.10
2018-07-07T14:12:02.881Z,26.80
2018-07-07T14:14:32.089Z,26.70
2018-07-07T14:17:01.256Z,26.70
2018-07-07T14:19:30.345Z,26.40
2018-07-07T14:22:00.109Z,26.30
2018-07-07T14:24:29.706Z,26.40
2018-07-07T14:26:58.900Z,26.50
2018-07-07T14:29:27.961Z,26.70
2018-07-07T14:31:57.194Z,27.20
2018-07-07T14:34:26.283Z,27.00
2018-07-07T14:36:55.613Z,27.30
2018-07-07T14:46:57.043Z,27.10
2018-07-07T14:49:26.157Z,27.40
2018-07-07T14:51:55.350Z,27.40
2018-07-07T14:54:24.477Z,27.40
2018-07-07T14:56:53.637Z,27.20
2018-07-07T14:59:22.726Z,27.10
2018-07-07T15:01:51.769Z,26.60
2018-07-07T15:04:20.877Z,26.40
2018-07-07T15:06:49.971Z,26.30
2018-07-07T15:09:19.086Z,26.00
2018-07-07T15:11:48.211Z,26.60
2018-07-07T15:14:17.316Z,26.50
2018-07-07T15:16:46.442Z,26.00
2018-07-07T15:19:15.569Z,25.40
2018-07-07T15:21:44.688Z,25.10
2018-07-07T15:24:13.734Z,24.90
2018-07-07T15:31:40.076Z,25.10
2018-07-07T15:34:09.154Z,25.10
2018-07-07T15:36:38.857Z,24.80
2018-07-07T15:39:08.040Z,24.80
2018-07-07T15:41:37.727Z,24.90
2018-07-07T15:44:06.855Z,24.80
2018-07-07T15:46:35.990Z,24.60
2018-07-07T15:49:05.401Z,24.60
2018-07-07T15:51:34.502Z,24.60
2018-07-07T15:54:03.672Z,24.60
2018-07-07T15:56:32.759Z,24.50
2018-07-07T15:59:01.892Z,24.30
2018-07-07T16:01:31.088Z,24.10
2018-07-07T16:04:00.268Z,24.10
2018-07-07T16:06:30.737Z,24.00
2018-07-07T16:09:00.002Z,23.90
2018-07-07T16:11:29.045Z,23.90
2018-07-07T16:16:26.822Z,23.70
2018-07-07T16:18:55.955Z,23.70
2018-07-07T16:21:25.049Z,23.60
2018-07-07T16:23:54.381Z,23.60
2018-07-07T16:26:24.084Z,23.70
2018-07-07T16:28:53.312Z,23.50
2018-07-07T16:31:22.423Z,23.60
2018-07-07T16:33:51.997Z,23.60
2018-07-07T16:36:21.989Z,23.60
2018-07-07T16:38:51.277Z,23.60
2018-07-07T16:41:20.813Z,23.50
2018-07-07T16:43:50.677Z,23.40
2018-07-07T16:46:20.079Z,23.40
2018-07-07T16:48:49.394Z,23.20
2018-07-07T16:51:19.219Z,23.20
2018-07-07T16:53:48.558Z,23.20
2018-07-07T16:58:47.579Z,23.20
2018-07-07T17:01:17.225Z,23.10
2018-07-07T17:03:46.584Z,23.00
2018-07-07T17:06:16.048Z,23.00
2018-07-07T17:08:45.228Z,23.00
2018-07-07T17:11:14.336Z,23.00
2018-07-07T17:13:43.539Z,22.90
2018-07-07T17:16:12.882Z,22.90
2018-07-07T17:18:43.182Z,22.90
2018-07-07T17:21:13.043Z,22.80
2018-07-07T17:23:42.623Z,22.70
2018-07-07T17:26:11.971Z,22.60
2018-07-07T17:28:41.578Z,22.60
2018-07-07T17:31:10.746Z,22.50
2018-07-07T17:33:40.916Z,22.40
2018-07-07T17:36:10.152Z,22.30
2018-07-07T17:38:39.568Z,22.20
2018-07-07T17:41:10.232Z,22.10
2018-07-07T17:43:39.434Z,22.00
2018-07-07T17:46:23.986Z,22.00
2018-07-07T17:48:53.502Z,21.90
2018-07-07T17:51:23.766Z,21.80
2018-07-07T17:53:54.356Z,21.80
2018-07-07T17:56:24.394Z,21.70
2018-07-07T17:58:53.980Z,21.50
2018-07-07T18:01:24.107Z,21.50
2018-07-07T18:03:54.288Z,21.50
2018-07-07T18:06:23.400Z,21.40
2018-07-07T18:08:52.521Z,21.40
2018-07-07T18:11:21.787Z,21.40
2018-07-07T18:13:51.245Z,21.30
2018-07-07T18:16:21.327Z,21.20
2018-07-07T18:18:50.593Z,21.20
2018-07-07T18:21:19.817Z,21.10
2018-07-07T18:23:48.951Z,21.00
2018-07-07T18:26:18.742Z,20.90
2018-07-07T18:28:47.872Z,20.80
2018-07-07T18:33:45.893Z,20.70
2018-07-07T18:36:15.093Z,20.60
2018-07-07T18:38:44.428Z,20.50
2018-07-07T18:41:13.582Z,20.40
2018-07-07T18:43:43.071Z,20.30
2018-07-07T18:46:12.387Z,20.20
2018-07-07T18:48:41.519Z,20.20
2018-07-07T18:51:11.343Z,20.10
2018-07-07T18:53:41.053Z,20.00
2018-07-07T18:56:10.284Z,19.90
2018-07-07T18:58:39.364Z,19.80
2018-07-07T19:01:08.750Z,19.70
2018-07-07T19:03:37.870Z,19.70
2018-07-07T19:06:07.099Z,19.60
2018-07-07T19:08:36.475Z,19.50
2018-07-07T19:11:05.737Z,19.50
2018-07-07T19:13:34.788Z,19.40
2018-07-07T19:16:03.902Z,19.30
2018-07-07T19:18:33.097Z,19.20
2018-07-07T19:21:07.647Z,19.20
2018-07-07T19:23:42.103Z,19.10
2018-07-07T19:26:16.624Z,19.00
2018-07-07T19:28:45.713Z,18.90
2018-07-07T19:31:15.289Z,18.90
2018-07-07T19:33:49.798Z,18.80
2018-07-07T19:36:24.481Z,18.80
2018-07-07T19:38:53.546Z,18.70
2018-07-07T19:41:22.791Z,18.60
2018-07-07T19:43:52.887Z,18.60
2018-07-07T19:46:22.563Z,18.50
2018-07-07T19:48:51.773Z,18.40
2018-07-07T19:51:21.036Z,18.30
2018-07-07T19:53:51.002Z,18.30
2018-07-07T19:56:20.253Z,18.30
2018-07-07T19:58:49.299Z,18.20
2018-07-07T20:01:18.434Z,18.20
2018-07-07T20:03:47.613Z,18.10
2018-07-07T20:06:16.868Z,18.00
2018-07-07T20:08:45.962Z,18.00
2018-07-07T20:11:16.338Z,17.90
2018-07-07T20:13:45.852Z,17.90
2018-07-07T20:19:02.675Z,17.70
2018-07-07T20:21:48.286Z,17.70
2018-07-07T20:24:20.136Z,17.70
2018-07-07T20:26:54.583Z,17.50
2018-07-07T20:29:24.247Z,17.60
2018-07-07T20:31:55.252Z,17.50
2018-07-07T20:34:29.911Z,17.40
2018-07-07T20:36:59.708Z,17.40
2018-07-07T20:39:29.011Z,17.30
2018-07-07T20:41:58.096Z,17.20
2018-07-07T20:44:27.720Z,17.20
2018-07-07T20:46:56.901Z,17.10
2018-07-07T20:49:26.983Z,17.10
2018-07-07T20:51:56.267Z,17.00
2018-07-07T20:54:25.535Z,17.00
2018-07-07T20:56:55.170Z,16.90
2018-07-07T20:59:25.005Z,16.90
2018-07-07T21:01:54.327Z,16.90
2018-07-07T21:04:23.453Z,16.80
2018-07-07T21:06:52.664Z,16.70
2018-07-07T21:09:22.554Z,16.70
2018-07-07T21:11:53.303Z,16.70
2018-07-07T21:14:22.453Z,16.60
2018-07-07T21:16:51.558Z,16.50
2018-07-07T21:21:52.087Z,16.50
2018-07-07T21:24:21.197Z,16.40
2018-07-07T21:26:50.381Z,16.40
2018-07-07T21:29:19.573Z,16.30
2018-07-07T21:31:48.689Z,16.20
2018-07-07T21:34:17.806Z,16.20
2018-07-07T21:36:46.902Z,16.20
2018-07-07T21:39:15.984Z,16.10
2018-07-07T21:41:45.096Z,16.10
2018-07-07T21:46:42.761Z,16.00
2018-07-07T21:49:11.840Z,16.00
2018-07-07T21:51:40.982Z,15.90
2018-07-07T21:54:10.123Z,15.90
2018-07-07T21:56:39.274Z,16.00
2018-07-07T21:59:14.178Z,15.90
2018-07-07T22:01:55.980Z,15.90
2018-07-07T22:04:31.290Z,15.80
2018-07-07T22:07:06.595Z,15.80
2018-07-07T22:09:36.449Z,15.70
2018-07-07T22:12:06.366Z,15.70
2018-07-07T22:14:36.676Z,15.60
2018-07-07T22:17:05.940Z,15.60
2018-07-07T22:19:35.118Z,15.60
2018-07-07T22:22:07.352Z,15.50
2018-07-07T22:24:37.112Z,15.50
2018-07-07T22:27:08.945Z,15.50
2018-07-07T22:29:38.301Z,15.40
2018-07-07T22:32:12.723Z,15.40
2018-07-07T22:34:42.547Z,15.40
2018-07-07T22:37:12.791Z,15.40
2018-07-07T22:39:43.052Z,15.40
2018-07-07T22:42:15.810Z,15.30
2018-07-07T22:44:46.057Z,15.30
2018-07-07T22:47:15.235Z,15.30
2018-07-07T22:49:44.379Z,15.30
2018-07-07T22:52:13.420Z,15.30
2018-07-07T22:54:42.611Z,15.30
2018-07-07T22:57:12.605Z,15.20
2018-07-07T22:59:41.836Z,15.20
2018-07-07T23:02:10.948Z,15.20
2018-07-07T23:04:40.332Z,15.10
2018-07-07T23:09:38.042Z,15.10
2018-07-07T23:12:07.159Z,15.10
2018-07-07T23:14:36.230Z,15.10
2018-07-07T23:17:05.266Z,15.10
2018-07-07T23:19:34.300Z,15.10
2018-07-07T23:24:31.992Z,15.00
2018-07-07T23:27:01.117Z,15.00
2018-07-07T23:29:30.175Z,15.00
2018-07-07T23:31:59.216Z,14.90
2018-07-07T23:34:28.246Z,15.00
2018-07-07T23:36:57.309Z,14.90
2018-07-07T23:39:27.016Z,14.90
2018-07-07T23:41:56.122Z,14.90
2018-07-07T23:44:25.270Z,14.80
2018-07-07T23:46:54.326Z,14.80
2018-07-07T23:49:23.417Z,14.80
2018-07-07T23:51:52.489Z,14.90
2018-07-07T23:54:21.550Z,14.80
2018-07-07T23:56:50.668Z,14.80
2018-07-07T23:59:19.936Z,14.70
